createdAt,value
2022-11-24T00:01:15.835Z,1.35
2022-11-24T00:03:44.040Z,1.35
2022-11-24T00:06:13.798Z,1.34
2022-11-24T00:08:42.818Z,1.28
2022-11-24T00:11:13.231Z,1.30
2022-11-24T00:13:41.605Z,1.20
2022-11-24T00:16:13.709Z,1.38
2022-11-24T00:18:42.297Z,1.38
2022-11-24T00:21:10.371Z,1.28
2022-11-24T00:23:38.255Z,1.26
2022-11-24T00:26:06.531Z,1.21
2022-11-24T00:28:35.220Z,1.18
2022-11-24T00:31:03.017Z,1.13
2022-11-24T00:33:30.050Z,1.14
2022-11-24T00:35:58.871Z,1.15
2022-11-24T00:38:26.570Z,1.10
2022-11-24T00:40:55.479Z,1.08
2022-11-24T00:43:22.571Z,1.08
2022-11-24T00:45:49.849Z,1.10
2022-11-24T00:48:16.895Z,1.06
2022-11-24T00:50:43.899Z,1.09
2022-11-24T00:53:10.951Z,1.05
2022-11-24T00:55:38.067Z,1.13
2022-11-24T00:58:05.115Z,1.01
2022-11-24T01:00:35.343Z,0.88
2022-11-24T01:03:05.207Z,0.85
2022-11-24T01:05:32.247Z,0.82
2022-11-24T01:07:59.118Z,0.77
2022-11-24T01:10:26.375Z,0.81
2022-11-24T01:12:53.747Z,0.69
2022-11-24T01:15:23.862Z,0.67
2022-11-24T01:17:51.376Z,0.71
2022-11-24T01:20:18.516Z,0.71
2022-11-24T01:22:48.819Z,0.69
2022-11-24T01:25:16.319Z,0.74
2022-11-24T01:27:43.304Z,0.70
2022-11-24T01:30:11.210Z,0.71
2022-11-24T01:32:38.199Z,0.73
2022-11-24T01:35:06.390Z,0.68
2022-11-24T01:37:33.521Z,0.63
2022-11-24T01:40:00.918Z,0.56
2022-11-24T01:42:40.302Z,0.48
2022-11-24T01:45:28.558Z,0.56
2022-11-24T01:47:56.310Z,0.56
2022-11-24T01:50:23.813Z,0.56
2022-11-24T01:52:54.277Z,0.54
2022-11-24T01:55:34.003Z,0.42
2022-11-24T01:58:09.075Z,0.37
2022-11-24T02:00:38.656Z,0.29
2022-11-24T02:03:06.667Z,0.17
2022-11-24T02:05:41.286Z,0.15
2022-11-24T02:08:19.538Z,0.07
2022-11-24T02:10:47.511Z,0.03
2022-11-24T02:13:15.993Z,0.07
2022-11-24T02:15:43.255Z,0.05
2022-11-24T02:18:12.428Z,0.00
2022-11-24T02:20:39.638Z,0.07
2022-11-24T02:23:21.552Z,0.08
2022-11-24T02:26:11.794Z,0.18
2022-11-24T02:28:39.205Z,0.13
2022-11-24T02:31:06.484Z,0.07
2022-11-24T02:33:34.901Z,-0.01
2022-11-24T02:36:01.955Z,-0.08
2022-11-24T02:38:37.712Z,-0.02
2022-11-24T02:41:11.451Z,-0.07
2022-11-24T02:43:55.060Z,0.03
2022-11-24T02:46:22.519Z,-0.01
2022-11-24T02:48:49.510Z,-0.09
2022-11-24T02:51:16.645Z,-0.19
2022-11-24T02:53:43.994Z,-0.40
2022-11-24T02:56:11.042Z,-0.41
2022-11-24T02:58:38.164Z,-0.41
2022-11-24T03:01:05.478Z,-0.47
2022-11-24T03:03:32.628Z,-0.37
2022-11-24T03:05:59.666Z,-0.42
2022-11-24T03:08:26.586Z,-0.50
2022-11-24T03:10:54.678Z,-0.50
2022-11-24T03:13:21.765Z,-0.45
2022-11-24T03:15:49.075Z,-0.35
2022-11-24T03:18:16.142Z,-0.26
2022-11-24T03:20:43.051Z,-0.26
2022-11-24T03:23:10.319Z,-0.12
2022-11-24T03:25:37.376Z,-0.16
2022-11-24T03:28:10.062Z,-0.08
2022-11-24T03:30:37.136Z,-0.02
2022-11-24T03:33:05.248Z,-0.02
2022-11-24T03:35:32.227Z,-0.01
2022-11-24T03:37:59.350Z,-0.01
2022-11-24T03:40:26.440Z,0.02
2022-11-24T03:42:53.546Z,0.03
2022-11-24T03:45:44.910Z,0.07
2022-11-24T03:48:08.220Z,-0.06
2022-11-24T03:50:35.343Z,-0.10
2022-11-24T03:53:02.482Z,-0.29
2022-11-24T03:55:29.424Z,-0.25
2022-11-24T03:57:56.507Z,-0.20
2022-11-24T04:00:23.516Z,-0.16
2022-11-24T04:02:50.767Z,-0.18
2022-11-24T04:05:17.817Z,-0.11
2022-11-24T04:07:44.919Z,-0.04
2022-11-24T04:10:12.003Z,0.03
2022-11-24T04:12:46.232Z,0.08
2022-11-24T04:15:15.937Z,0.07
2022-11-24T04:17:44.285Z,0.04
2022-11-24T04:20:12.532Z,0.03
2022-11-24T04:22:40.064Z,0.04
2022-11-24T04:25:08.508Z,0.09
2022-11-24T04:27:37.192Z,0.07
2022-11-24T04:30:08.145Z,0.08
2022-11-24T04:32:35.776Z,0.09
2022-11-24T04:35:04.465Z,0.15
2022-11-24T04:37:31.496Z,0.09
2022-11-24T04:39:58.508Z,0.10
2022-11-24T04:42:25.541Z,0.13
2022-11-24T04:44:52.759Z,0.14
2022-11-24T04:47:25.641Z,0.03
2022-11-24T04:49:55.623Z,0.09
2022-11-24T04:52:24.491Z,0.15
2022-11-24T04:54:51.950Z,0.15
2022-11-24T04:57:24.820Z,0.13
2022-11-24T04:59:52.906Z,0.13
2022-11-24T05:02:20.791Z,0.11
2022-11-24T05:04:48.221Z,0.09
2022-11-24T05:07:18.975Z,0.13
2022-11-24T05:10:05.937Z,0.09
2022-11-24T05:12:33.171Z,0.12
2022-11-24T05:15:05.012Z,0.17
2022-11-24T05:17:34.981Z,0.17
2022-11-24T05:20:02.397Z,0.11
2022-11-24T05:22:31.761Z,0.14
2022-11-24T05:24:59.115Z,0.20
2022-11-24T05:27:26.073Z,0.27
2022-11-24T05:29:53.224Z,0.22
2022-11-24T05:32:20.372Z,0.15
2022-11-24T05:34:48.101Z,0.28
2022-11-24T05:37:15.184Z,0.30
2022-11-24T05:39:42.132Z,0.32
2022-11-24T05:42:28.173Z,0.28
2022-11-24T05:44:55.330Z,0.29
2022-11-24T05:47:22.366Z,0.23
2022-11-24T05:49:49.893Z,0.28
2022-11-24T05:52:17.013Z,0.22
2022-11-24T05:54:44.037Z,0.21
2022-11-24T05:57:10.938Z,0.26
2022-11-24T05:59:38.009Z,0.31
2022-11-24T06:02:05.090Z,0.28
2022-11-24T06:04:32.596Z,0.28
2022-11-24T06:07:00.023Z,0.28
2022-11-24T06:09:27.188Z,0.29
2022-11-24T06:11:56.790Z,0.29
2022-11-24T06:14:24.395Z,0.29
2022-11-24T06:16:51.672Z,0.27
2022-11-24T06:19:18.740Z,0.23
2022-11-24T06:21:45.688Z,0.25
2022-11-24T06:24:12.894Z,0.15
2022-11-24T06:26:39.861Z,0.15
2022-11-24T06:29:07.023Z,0.17
2022-11-24T06:31:34.034Z,0.09
2022-11-24T06:34:01.138Z,0.14
2022-11-24T06:36:28.335Z,0.18
2022-11-24T06:38:55.452Z,0.23
2022-11-24T06:41:22.395Z,0.25
2022-11-24T06:43:49.429Z,0.20
2022-11-24T06:46:16.410Z,0.21
2022-11-24T06:48:43.427Z,0.28
2022-11-24T06:51:15.393Z,0.28
2022-11-24T06:53:42.369Z,0.24
2022-11-24T06:56:16.393Z,0.22
2022-11-24T06:58:46.418Z,0.18
2022-11-24T07:01:32.518Z,0.13
2022-11-24T07:03:59.674Z,0.06
2022-11-24T07:06:28.513Z,0.09
2022-11-24T07:08:55.641Z,0.11
2022-11-24T07:11:24.135Z,0.12
2022-11-24T07:13:55.178Z,0.17
2022-11-24T07:16:26.672Z,0.12
2022-11-24T07:18:56.022Z,0.16
2022-11-24T07:21:24.253Z,0.14
2022-11-24T07:23:53.096Z,0.18
2022-11-24T07:26:20.699Z,0.11
2022-11-24T07:28:47.730Z,0.10
2022-11-24T07:31:21.079Z,-0.08
2022-11-24T07:33:53.723Z,-0.18
2022-11-24T07:36:22.005Z,-0.12
2022-11-24T07:38:50.249Z,-0.19
2022-11-24T07:41:22.469Z,-0.14
2022-11-24T07:43:51.010Z,-0.17
2022-11-24T07:46:22.739Z,-0.16
2022-11-24T07:48:50.443Z,-0.08
2022-11-24T07:51:23.139Z,-0.07
2022-11-24T07:53:56.450Z,-0.10
2022-11-24T07:56:28.805Z,-0.21
2022-11-24T07:58:58.644Z,-0.17
2022-11-24T08:01:26.986Z,-0.12
2022-11-24T08:03:58.088Z,-0.01
2022-11-24T08:06:27.674Z,-0.05
2022-11-24T08:08:58.458Z,0.02
2022-11-24T08:11:26.285Z,0.12
2022-11-24T08:13:54.111Z,0.11
2022-11-24T08:16:21.283Z,0.23
2022-11-24T08:18:54.003Z,0.35
2022-11-24T08:21:23.400Z,0.38
2022-11-24T08:23:56.834Z,0.42
2022-11-24T08:26:25.358Z,0.36
2022-11-24T08:28:58.130Z,0.50
2022-11-24T08:31:34.300Z,0.54
2022-11-24T08:34:02.948Z,0.61
2022-11-24T08:36:30.018Z,0.63
2022-11-24T08:38:59.110Z,0.69
2022-11-24T08:41:28.235Z,0.57
2022-11-24T08:43:56.022Z,0.44
2022-11-24T08:47:13.653Z,0.31
2022-11-24T08:49:34.756Z,0.29
2022-11-24T08:52:10.039Z,0.35
2022-11-24T08:54:42.879Z,0.41
2022-11-24T08:57:21.649Z,0.53
2022-11-24T09:00:07.675Z,0.42
2022-11-24T09:02:46.367Z,0.55
2022-11-24T09:08:11.697Z,0.66
2022-11-24T09:13:46.344Z,0.77
2022-11-24T09:16:23.134Z,0.71
2022-11-24T09:32:16.480Z,0.54
2022-11-24T09:37:48.728Z,0.61
2022-11-24T09:44:11.144Z,0.68
2022-11-24T09:46:53.127Z,0.77
2022-11-24T09:50:02.634Z,0.78
2022-11-24T09:53:16.053Z,0.54
2022-11-24T09:56:26.956Z,0.73
2022-11-24T09:59:03.707Z,0.54
2022-11-24T10:01:47.921Z,0.80
2022-11-24T10:04:42.350Z,0.85
2022-11-24T10:07:12.145Z,0.86
2022-11-24T10:09:44.944Z,0.83
2022-11-24T10:12:21.356Z,0.88
2022-11-24T10:15:16.577Z,0.80
2022-11-24T10:18:13.237Z,0.68
2022-11-24T10:21:06.388Z,0.60
2022-11-24T10:24:08.192Z,0.47
2022-11-24T10:27:28.095Z,0.21
2022-11-24T10:30:23.740Z,0.16
2022-11-24T10:33:30.552Z,0.20
2022-11-24T10:36:23.199Z,0.22
2022-11-24T10:39:24.119Z,0.34
2022-11-24T10:43:00.263Z,0.20
2022-11-24T10:45:37.542Z,0.14
2022-11-24T10:48:09.082Z,0.19
2022-11-24T10:50:41.752Z,0.31
2022-11-24T10:53:08.910Z,0.32
2022-11-24T10:55:56.460Z,0.32
2022-11-24T11:03:40.448Z,0.26
2022-11-24T11:06:51.797Z,0.12
2022-11-24T11:10:18.849Z,0.15
2022-11-24T11:12:48.610Z,-0.01
2022-11-24T11:15:29.661Z,0.17
2022-11-24T11:18:26.022Z,0.06
2022-11-24T11:21:46.280Z,0.02
2022-11-24T11:25:27.853Z,0.11
2022-11-24T11:35:53.499Z,-0.58
2022-11-24T11:38:21.203Z,-0.56
2022-11-24T11:43:46.015Z,-0.41
2022-11-24T11:46:27.327Z,-0.31
2022-11-24T11:48:59.948Z,-0.46
2022-11-24T11:51:59.347Z,-0.47
2022-11-24T12:02:36.639Z,-0.48
2022-11-24T12:05:26.237Z,-0.53
2022-11-24T12:08:16.018Z,-0.57
2022-11-24T12:11:10.327Z,-0.52
2022-11-24T12:14:19.805Z,-0.52
2022-11-24T12:17:27.699Z,-0.71
2022-11-24T12:20:46.044Z,-0.91
2022-11-24T12:24:07.588Z,-0.82
2022-11-24T12:27:23.341Z,-1.01
2022-11-24T12:30:53.435Z,-1.16
2022-11-24T12:34:44.295Z,-1.29
2022-11-24T12:37:46.228Z,-1.29
2022-11-24T12:44:10.159Z,-1.33
2022-11-24T12:47:28.296Z,-1.41
2022-11-24T12:50:16.527Z,-1.43
2022-11-24T13:06:02.847Z,-1.41
2022-11-24T13:08:51.682Z,-1.68
2022-11-24T13:11:22.519Z,-1.58
2022-11-24T13:14:11.475Z,-1.73
2022-11-24T13:17:21.875Z,-1.61
2022-11-24T13:21:43.483Z,-1.57
2022-11-24T13:32:55.150Z,-1.67
2022-11-24T13:38:58.218Z,-1.73
2022-11-24T13:52:42.353Z,-1.46
2022-11-24T13:55:23.609Z,-1.46
2022-11-24T13:57:54.491Z,-1.51
2022-11-24T14:00:33.460Z,-1.65
2022-11-24T14:03:30.912Z,-1.69
2022-11-24T14:05:59.558Z,-1.70
2022-11-24T14:08:30.423Z,-1.65
2022-11-24T14:10:59.450Z,-1.53
2022-11-24T14:13:32.567Z,-1.39
2022-11-24T14:16:12.687Z,-1.43
2022-11-24T14:18:42.815Z,-1.54
2022-11-24T14:21:44.611Z,-1.94
2022-11-24T14:24:53.878Z,-1.74
2022-11-24T14:27:41.210Z,-1.79
2022-11-24T14:30:22.391Z,-1.79
2022-11-24T14:32:56.043Z,-1.78
2022-11-24T14:35:26.212Z,-1.78
2022-11-24T14:37:56.043Z,-1.73
2022-11-24T14:44:01.514Z,-1.80
2022-11-24T14:46:28.826Z,-1.94
2022-11-24T14:48:59.248Z,-1.97
2022-11-24T14:51:33.227Z,-2.00
2022-11-24T14:54:12.418Z,-2.05
2022-11-24T14:56:46.201Z,-1.94
2022-11-24T14:59:26.651Z,-1.95
2022-11-24T15:01:59.781Z,-2.18
2022-11-24T15:07:19.631Z,-2.04
2022-11-24T15:10:43.728Z,-2.24
2022-11-24T15:13:21.658Z,-2.25
2022-11-24T15:16:03.416Z,-2.24
2022-11-24T15:18:56.984Z,-2.15
2022-11-24T15:21:35.386Z,-2.19
2022-11-24T15:24:19.513Z,-2.27
2022-11-24T15:26:47.129Z,-2.30
2022-11-24T15:29:14.802Z,-2.61
2022-11-24T15:31:46.432Z,-2.45
2022-11-24T15:34:18.342Z,-2.45
2022-11-24T15:36:45.757Z,-2.66
2022-11-24T15:39:13.723Z,-2.56
2022-11-24T15:41:40.963Z,-2.51
2022-11-24T15:44:09.720Z,-2.52
2022-11-24T15:46:38.860Z,-2.44
2022-11-24T15:49:06.640Z,-2.48
2022-11-24T15:51:42.908Z,-2.61
2022-11-24T15:54:14.450Z,-2.68
2022-11-24T15:56:42.144Z,-2.72
2022-11-24T15:59:20.803Z,-2.78
2022-11-24T16:01:49.841Z,-2.76
2022-11-24T16:04:17.196Z,-2.85
2022-11-24T16:06:44.134Z,-2.86
2022-11-24T16:09:18.545Z,-2.84
2022-11-24T16:11:48.082Z,-2.97
2022-11-24T16:14:22.856Z,-2.94
2022-11-24T16:16:52.953Z,-2.93
2022-11-24T16:19:19.859Z,-2.89
2022-11-24T16:21:52.870Z,-2.91
2022-11-24T16:24:21.009Z,-2.87
2022-11-24T16:26:55.619Z,-2.91
2022-11-24T16:29:35.333Z,-3.02
2022-11-24T16:32:05.561Z,-3.21
2022-11-24T16:34:32.710Z,-3.05
2022-11-24T16:37:00.019Z,-2.94
2022-11-24T16:39:29.695Z,-3.13
2022-11-24T16:41:58.916Z,-3.09
2022-11-24T16:44:26.005Z,-3.15
2022-11-24T16:46:56.429Z,-3.08
2022-11-24T16:49:29.222Z,-3.03
2022-11-24T16:51:56.351Z,-3.07
2022-11-24T16:54:23.610Z,-2.99
2022-11-24T16:56:50.480Z,-3.02
2022-11-24T16:59:17.715Z,-2.94
2022-11-24T17:01:46.687Z,-2.97
2022-11-24T17:04:14.170Z,-3.02
2022-11-24T17:06:41.231Z,-3.20
2022-11-24T17:09:09.233Z,-3.19
2022-11-24T17:11:44.550Z,-3.03
2022-11-24T17:14:14.696Z,-2.84
2022-11-24T17:16:42.872Z,-2.75
2022-11-24T17:19:10.459Z,-2.72
2022-11-24T17:21:37.802Z,-2.76
2022-11-24T17:24:05.606Z,-2.76
2022-11-24T17:26:33.659Z,-2.72
2022-11-24T17:29:00.711Z,-2.70
2022-11-24T17:31:31.080Z,-2.65
2022-11-24T17:34:03.338Z,-2.74
2022-11-24T17:36:32.473Z,-2.68
2022-11-24T17:39:00.242Z,-2.76
2022-11-24T17:41:28.167Z,-2.84
2022-11-24T17:43:59.505Z,-2.79
2022-11-24T17:46:28.022Z,-2.67
2022-11-24T17:48:55.331Z,-2.64
2022-11-24T17:51:24.634Z,-2.73
2022-11-24T17:54:18.657Z,-2.69
2022-11-24T17:56:53.193Z,-2.80
2022-11-24T17:59:25.255Z,-2.76
2022-11-24T18:01:53.491Z,-2.72
2022-11-24T18:04:20.694Z,-2.69
2022-11-24T18:06:47.583Z,-2.63
2022-11-24T18:09:14.577Z,-2.57
2022-11-24T18:11:44.061Z,-2.49
2022-11-24T18:14:11.078Z,-2.58
2022-11-24T18:16:38.057Z,-2.53
2022-11-24T18:19:18.414Z,-2.61
2022-11-24T18:21:51.293Z,-2.70
2022-11-24T18:27:27.916Z,-2.75
2022-11-24T18:30:24.064Z,-2.96
2022-11-24T18:33:24.605Z,-2.81
2022-11-24T18:36:37.715Z,-2.79
2022-11-24T18:39:33.022Z,-2.97
2022-11-24T18:42:00.150Z,-2.96
2022-11-24T18:44:38.163Z,-2.74
2022-11-24T18:52:39.521Z,-2.88
2022-11-24T18:55:08.469Z,-2.72
2022-11-24T18:57:38.951Z,-2.73
2022-11-24T19:00:07.786Z,-2.79
2022-11-24T19:02:35.378Z,-2.75
2022-11-24T19:05:04.954Z,-2.66
2022-11-24T19:07:37.438Z,-2.73
2022-11-24T19:10:08.499Z,-2.75
2022-11-24T19:12:39.677Z,-2.83
2022-11-24T19:15:07.511Z,-2.70
2022-11-24T19:17:35.647Z,-2.64
2022-11-24T19:20:06.323Z,-2.62
2022-11-24T19:22:35.797Z,-2.56
2022-11-24T19:25:16.342Z,-2.75
2022-11-24T19:28:17.123Z,-2.70
2022-11-24T19:31:21.501Z,-2.69
2022-11-24T19:34:03.701Z,-2.66
2022-11-24T19:36:38.418Z,-2.52
2022-11-24T19:39:09.785Z,-2.65
2022-11-24T19:41:36.735Z,-2.67
2022-11-24T19:44:04.108Z,-2.52
2022-11-24T19:46:34.817Z,-2.50
2022-11-24T19:49:07.336Z,-2.36
2022-11-24T19:51:49.364Z,-2.45
2022-11-24T19:54:17.250Z,-2.48
2022-11-24T19:56:44.451Z,-2.55
2022-11-24T19:59:13.695Z,-2.56
2022-11-24T20:01:42.750Z,-2.57
2022-11-24T20:04:12.833Z,-2.56
2022-11-24T20:06:42.091Z,-2.66
2022-11-24T20:09:16.529Z,-2.55
2022-11-24T20:11:44.195Z,-2.68
2022-11-24T20:17:32.696Z,-2.58
2022-11-24T20:20:02.117Z,-2.52
2022-11-24T20:22:30.027Z,-2.50
2022-11-24T20:24:56.994Z,-2.48
2022-11-24T20:27:23.887Z,-2.46
2022-11-24T20:29:53.679Z,-2.50
2022-11-24T20:32:20.809Z,-2.56
2022-11-24T20:34:52.408Z,-2.63
2022-11-24T20:37:19.370Z,-2.58
2022-11-24T20:39:46.445Z,-2.45
2022-11-24T20:42:14.563Z,-2.60
2022-11-24T20:44:41.645Z,-2.87
2022-11-24T20:47:11.173Z,-2.83
2022-11-24T20:49:47.114Z,-2.88
2022-11-24T20:52:17.697Z,-2.86
2022-11-24T20:54:46.991Z,-2.97
2022-11-24T20:57:16.682Z,-2.86
2022-11-24T20:59:43.979Z,-2.92
2022-11-24T21:02:13.851Z,-2.93
2022-11-24T21:04:47.573Z,-2.92
2022-11-24T21:07:15.872Z,-2.88
2022-11-24T21:09:43.014Z,-2.84
2022-11-24T21:12:10.205Z,-2.87
2022-11-24T21:14:37.670Z,-2.92
2022-11-24T21:17:04.984Z,-2.92
2022-11-24T21:19:36.002Z,-2.93
2022-11-24T21:22:02.909Z,-2.93
2022-11-24T21:24:33.460Z,-2.96
2022-11-24T21:27:03.151Z,-3.03
2022-11-24T21:29:33.255Z,-2.90
2022-11-24T21:32:03.176Z,-2.86
2022-11-24T21:34:30.271Z,-2.64
2022-11-24T21:37:12.141Z,-2.54
2022-11-24T21:39:40.962Z,-2.58
2022-11-24T21:42:07.952Z,-2.45
2022-11-24T21:44:38.334Z,-2.35
2022-11-24T21:47:05.462Z,-2.36
2022-11-24T21:49:32.619Z,-2.39
2022-11-24T21:51:59.533Z,-2.37
2022-11-24T21:54:26.629Z,-2.32
2022-11-24T21:56:54.277Z,-2.42
2022-11-24T21:59:22.164Z,-2.39
2022-11-24T22:01:57.926Z,-2.39
2022-11-24T22:04:25.068Z,-2.37
2022-11-24T22:06:55.591Z,-2.30
2022-11-24T22:09:22.828Z,-2.22
2022-11-24T22:11:49.854Z,-2.18
2022-11-24T22:14:17.123Z,-2.26
2022-11-24T22:16:47.591Z,-2.34
2022-11-24T22:19:16.936Z,-2.38
2022-11-24T22:21:48.244Z,-2.35
2022-11-24T22:24:15.287Z,-2.49
2022-11-24T22:26:42.249Z,-2.49
2022-11-24T22:29:09.306Z,-2.41
2022-11-24T22:31:36.405Z,-2.39
2022-11-24T22:34:03.345Z,-2.41
2022-11-24T22:36:32.974Z,-2.49
2022-11-24T22:39:05.732Z,-2.58
2022-11-24T22:41:34.797Z,-2.50
2022-11-24T22:44:02.121Z,-2.52
2022-11-24T22:46:30.631Z,-2.46
2022-11-24T22:49:00.250Z,-2.41
2022-11-24T22:51:30.013Z,-2.59
2022-11-24T22:54:06.151Z,-2.69
2022-11-24T22:56:34.217Z,-2.68
2022-11-24T22:59:02.645Z,-2.73
2022-11-24T23:01:31.607Z,-2.72
2022-11-24T23:03:58.667Z,-2.60
2022-11-24T23:06:28.113Z,-2.67
2022-11-24T23:08:56.753Z,-2.85
2022-11-24T23:11:36.411Z,-2.68
2022-11-24T23:14:12.098Z,-2.71
2022-11-24T23:16:39.310Z,-2.70
2022-11-24T23:19:06.603Z,-2.68
2022-11-24T23:21:36.642Z,-2.70
2022-11-24T23:24:04.604Z,-2.83
2022-11-24T23:26:36.131Z,-2.83
2022-11-24T23:29:06.720Z,-2.75
2022-11-24T23:31:34.099Z,-2.68
2022-11-24T23:34:03.525Z,-2.61
2022-11-24T23:36:32.426Z,-2.76
2022-11-24T23:39:07.465Z,-2.79
2022-11-24T23:41:34.878Z,-2.74
2022-11-24T23:44:01.985Z,-2.73
2022-11-24T23:46:29.330Z,-2.75
2022-11-24T23:48:57.288Z,-2.81
2022-11-24T23:51:26.917Z,-2.91
2022-11-24T23:53:54.802Z,-2.89
2022-11-24T23:56:24.953Z,-2.87
2022-11-24T23:58:52.121Z,-3.00
